sensor_id;sensor_type;location;lat;lon;timestamp;pressure;altitude;pressure_sealevel;temperature;humidity
76260;BME280;65076;52.362;6.588;2023-02-26T00:01:50;101911.53;;;2.77;68.93
76260;BME280;65076;52.362;6.588;2023-02-26T00:04:27;101912.41;;;2.83;68.44
76260;BME280;65076;52.362;6.588;2023-02-26T00:06:55;101907.97;;;2.75;69.49
76260;BME280;65076;52.362;6.588;2023-02-26T00:09:24;101910.66;;;2.76;69.17
76260;BME280;65076;52.362;6.588;2023-02-26T00:11:53;101907.97;;;2.75;69.06
76260;BME280;65076;52.362;6.588;2023-02-26T00:14:22;101914.19;;;2.75;68.99
76260;BME280;65076;52.362;6.588;2023-02-26T00:16:57;101904.41;;;2.97;68.65
76260;BME280;65076;52.362;6.588;2023-02-26T00:19:41;101912.41;;;2.83;69.07
76260;BME280;65076;52.362;6.588;2023-02-26T00:22:10;101914.22;;;2.81;68.19
76260;BME280;65076;52.362;6.588;2023-02-26T00:24:38;101924.88;;;2.93;68.21
76260;BME280;65076;52.362;6.588;2023-02-26T00:27:08;101918.66;;;2.84;68.58
76260;BME280;65076;52.362;6.588;2023-02-26T00:29:38;101919.53;;;2.93;67.62
76260;BME280;65076;52.362;6.588;2023-02-26T00:32:09;101924.88;;;2.66;68.80
76260;BME280;65076;52.362;6.588;2023-02-26T00:34:38;101930.22;;;2.72;68.60
76260;BME280;65076;52.362;6.588;2023-02-26T00:37:15;101930.22;;;2.78;68.81
76260;BME280;65076;52.362;6.588;2023-02-26T00:40:02;101940.03;;;2.79;68.42
76260;BME280;65076;52.362;6.588;2023-02-26T00:42:41;101941.72;;;2.33;69.39
76260;BME280;65076;52.362;6.588;2023-02-26T00:45:11;101939.13;;;2.61;68.62
76260;BME280;65076;52.362;6.588;2023-02-26T00:47:46;101942.63;;;2.40;68.75
76260;BME280;65076;52.362;6.588;2023-02-26T00:50:19;101943.53;;;2.49;68.97
76260;BME280;65076;52.362;6.588;2023-02-26T00:53:01;101942.63;;;2.40;69.65
76260;BME280;65076;52.362;6.588;2023-02-26T00:55:34;101941.72;;;2.38;68.45
76260;BME280;65076;52.362;6.588;2023-02-26T00:58:02;101951.44;;;2.18;69.41
76260;BME280;65076;52.362;6.588;2023-02-26T01:00:30;101938.22;;;2.69;68.45
76260;BME280;65076;52.362;6.588;2023-02-26T01:03:00;101945.31;;;2.53;69.02
76260;BME280;65076;52.362;6.588;2023-02-26T01:05:29;101943.53;;;2.40;68.92
76260;BME280;65076;52.362;6.588;2023-02-26T01:08:02;101956.72;;;2.05;69.11
76260;BME280;65076;52.362;6.588;2023-02-26T01:10:35;101954.13;;;2.15;69.87
76260;BME280;65076;52.362;6.588;2023-02-26T01:13:04;101955.84;;;2.06;69.61
76260;BME280;65076;52.362;6.588;2023-02-26T01:15:33;101957.63;;;2.10;69.43
76260;BME280;65076;52.362;6.588;2023-02-26T01:18:07;101959.28;;;1.80;70.58
76260;BME280;65076;52.362;6.588;2023-02-26T01:20:43;101962.09;;;2.10;69.70
76260;BME280;65076;52.362;6.588;2023-02-26T01:23:18;101969.19;;;2.06;69.67
76260;BME280;65076;52.362;6.588;2023-02-26T01:25:55;101967.28;;;1.77;69.90
76260;BME280;65076;52.362;6.588;2023-02-26T01:28:26;101968.13;;;1.69;70.65
76260;BME280;65076;52.362;6.588;2023-02-26T01:30:58;101970.75;;;1.62;71.06
76260;BME280;65076;52.362;6.588;2023-02-26T01:33:35;101976.13;;;1.74;71.10
76260;BME280;65076;52.362;6.588;2023-02-26T01:36:14;101971.69;;;1.73;70.57
76260;BME280;65076;52.362;6.588;2023-02-26T01:38:51;101974.34;;;1.72;70.85
76260;BME280;65076;52.362;6.588;2023-02-26T01:41:29;101975.28;;;1.80;70.46
76260;BME280;65076;52.362;6.588;2023-02-26T01:44:07;101977.03;;;1.72;70.05
76260;BME280;65076;52.362;6.588;2023-02-26T01:46:53;101980.66;;;1.89;69.16
76260;BME280;65076;52.362;6.588;2023-02-26T01:49:32;101977.13;;;1.88;69.42
76260;BME280;65076;52.362;6.588;2023-02-26T01:52:02;101986.91;;;1.88;69.04
76260;BME280;65076;52.362;6.588;2023-02-26T01:54:33;101985.97;;;1.80;69.13
76260;BME280;65076;52.362;6.588;2023-02-26T01:57:05;101984.31;;;2.03;68.65
76260;BME280;65076;52.362;6.588;2023-02-26T01:59:38;101988.69;;;1.95;68.47
76260;BME280;65076;52.362;6.588;2023-02-26T02:02:10;101989.66;;;2.03;68.21
76260;BME280;65076;52.362;6.588;2023-02-26T02:04:43;101987.88;;;2.09;67.73
76260;BME280;65076;52.362;6.588;2023-02-26T02:07:13;102000.22;;;1.89;68.14
76260;BME280;65076;52.362;6.588;2023-02-26T02:09:41;101999.22;;;1.69;68.51
76260;BME280;65076;52.362;6.588;2023-02-26T02:12:20;102003.59;;;1.58;69.01
76260;BME280;65076;52.362;6.588;2023-02-26T02:15:03;102007.94;;;1.44;68.83
76260;BME280;65076;52.362;6.588;2023-02-26T02:17:49;102009.75;;;1.46;68.71
76260;BME280;65076;52.362;6.588;2023-02-26T02:20:41;102018.59;;;1.44;69.43
76260;BME280;65076;52.362;6.588;2023-02-26T02:23:31;102012.41;;;1.46;68.46
76260;BME280;65076;52.362;6.588;2023-02-26T02:26:39;102022.81;;;1.14;68.88
76260;BME280;65076;52.362;6.588;2023-02-26T02:29:30;102019.59;;;1.58;67.26
76260;BME280;65076;52.362;6.588;2023-02-26T02:32:20;102029.16;;;1.28;67.98
76260;BME280;65076;52.362;6.588;2023-02-26T02:34:58;102018.47;;;1.27;68.44
76260;BME280;65076;52.362;6.588;2023-02-26T02:37:36;102030.84;;;1.20;68.46
76260;BME280;65076;52.362;6.588;2023-02-26T02:40:12;102030.75;;;1.08;67.71
76260;BME280;65076;52.362;6.588;2023-02-26T02:42:46;102034.25;;;1.04;68.04
76260;BME280;65076;52.362;6.588;2023-02-26T02:45:22;102044.13;;;1.16;67.47
76260;BME280;65076;52.362;6.588;2023-02-26T02:48:00;102048.72;;;1.31;67.41
76260;BME280;65076;52.362;6.588;2023-02-26T02:50:35;102050.19;;;1.01;67.50
76260;BME280;65076;52.362;6.588;2023-02-26T02:53:11;102045.03;;;1.18;67.13
76260;BME280;65076;52.362;6.588;2023-02-26T02:55:49;102048.63;;;1.23;66.41
76260;BME280;65076;52.362;6.588;2023-02-26T02:58:24;102047.84;;;1.30;66.48
76260;BME280;65076;52.362;6.588;2023-02-26T03:01:00;102049.75;;;1.48;65.40
76260;BME280;65076;52.362;6.588;2023-02-26T03:03:35;102047.78;;;1.27;66.31
76260;BME280;65076;52.362;6.588;2023-02-26T03:06:08;102059.47;;;1.43;65.90
76260;BME280;65076;52.362;6.588;2023-02-26T03:08:39;102053.31;;;1.50;66.11
76260;BME280;65076;52.362;6.588;2023-02-26T03:11:08;102055.91;;;1.41;65.28
76260;BME280;65076;52.362;6.588;2023-02-26T03:13:38;102070.00;;;1.24;65.28
76260;BME280;65076;52.362;6.588;2023-02-26T03:16:19;102072.66;;;1.26;65.70
76260;BME280;65076;52.362;6.588;2023-02-26T03:19:06;102077.16;;;1.30;65.87
76260;BME280;65076;52.362;6.588;2023-02-26T03:21:48;102079.72;;;1.22;65.48
76260;BME280;65076;52.362;6.588;2023-02-26T03:24:28;102074.44;;;1.25;65.46
76260;BME280;65076;52.362;6.588;2023-02-26T03:27:09;102073.50;;;1.22;64.86
76260;BME280;65076;52.362;6.588;2023-02-26T03:29:46;102083.13;;;1.08;65.95
76260;BME280;65076;52.362;6.588;2023-02-26T03:32:23;102092.81;;;0.98;66.04
76260;BME280;65076;52.362;6.588;2023-02-26T03:35:02;102091.06;;;1.02;66.26
76260;BME280;65076;52.362;6.588;2023-02-26T03:37:38;102095.50;;;1.01;65.91
76260;BME280;65076;52.362;6.588;2023-02-26T03:40:13;102099.06;;;1.02;65.49
76260;BME280;65076;52.362;6.588;2023-02-26T03:42:48;102102.41;;;0.82;65.69
76260;BME280;65076;52.362;6.588;2023-02-26T03:45:25;102102.53;;;0.93;65.48
76260;BME280;65076;52.362;6.588;2023-02-26T03:47:59;102107.25;;;1.21;64.87
76260;BME280;65076;52.362;6.588;2023-02-26T03:50:32;102104.44;;;1.06;64.80
76260;BME280;65076;52.362;6.588;2023-02-26T03:53:08;102110.69;;;1.08;64.49
76260;BME280;65076;52.362;6.588;2023-02-26T03:55:49;102113.31;;;1.07;64.59
76260;BME280;65076;52.362;6.588;2023-02-26T03:58:22;102120.31;;;0.96;65.58
76260;BME280;65076;52.362;6.588;2023-02-26T04:00:54;102124.81;;;1.01;64.48
76260;BME280;65076;52.362;6.588;2023-02-26T04:03:28;102131.59;;;0.75;65.60
76260;BME280;65076;52.362;6.588;2023-02-26T04:06:03;102129.03;;;0.82;65.02
76260;BME280;65076;52.362;6.588;2023-02-26T04:08:33;102135.06;;;0.68;65.14
76260;BME280;65076;52.362;6.588;2023-02-26T04:11:05;102140.91;;;1.12;64.78
76260;BME280;65076;52.362;6.588;2023-02-26T04:13:36;102150.44;;;0.90;64.79
76260;BME280;65076;52.362;6.588;2023-02-26T04:16:05;102144.91;;;0.75;65.03
76260;BME280;65076;52.362;6.588;2023-02-26T04:18:33;102142.25;;;0.75;65.00
76260;BME280;65076;52.362;6.588;2023-02-26T04:21:03;102141.16;;;0.59;64.80
76260;BME280;65076;52.362;6.588;2023-02-26T04:23:32;102155.59;;;0.76;65.00
76260;BME280;65076;52.362;6.588;2023-02-26T04:26:00;102158.41;;;0.87;64.16
76260;BME280;65076;52.362;6.588;2023-02-26T04:28:28;102161.97;;;0.91;64.58
76260;BME280;65076;52.362;6.588;2023-02-26T04:30:56;102161.63;;;0.63;65.38
76260;BME280;65076;52.362;6.588;2023-02-26T04:33:24;102165.16;;;0.61;64.89
76260;BME280;65076;52.362;6.588;2023-02-26T04:35:52;102166.09;;;0.64;64.76
76260;BME280;65076;52.362;6.588;2023-02-26T04:38:22;102168.88;;;0.75;64.97
76260;BME280;65076;52.362;6.588;2023-02-26T04:40:50;102177.41;;;0.50;65.51
76260;BME280;65076;52.362;6.588;2023-02-26T04:43:18;102178.19;;;0.42;65.87
76260;BME280;65076;52.362;6.588;2023-02-26T04:45:46;102187.09;;;0.41;65.88
76260;BME280;65076;52.362;6.588;2023-02-26T04:48:15;102194.69;;;0.79;64.53
76260;BME280;65076;52.362;6.588;2023-02-26T04:50:44;102193.44;;;0.53;65.38
76260;BME280;65076;52.362;6.588;2023-02-26T04:53:12;102197.03;;;0.55;65.02
76260;BME280;65076;52.362;6.588;2023-02-26T04:55:42;102199.88;;;0.67;65.18
76260;BME280;65076;52.362;6.588;2023-02-26T04:58:10;102195.13;;;0.48;65.25
76260;BME280;65076;52.362;6.588;2023-02-26T05:00:38;102209.09;;;0.31;65.77
76260;BME280;65076;52.362;6.588;2023-02-26T05:03:06;102211.47;;;0.72;64.95
76260;BME280;65076;52.362;6.588;2023-02-26T05:05:35;102206.03;;;0.63;65.29
76260;BME280;65076;52.362;6.588;2023-02-26T05:08:03;102217.50;;;0.60;64.81
76260;BME280;65076;52.362;6.588;2023-02-26T05:10:31;102224.88;;;0.78;65.06
76260;BME280;65076;52.362;6.588;2023-02-26T05:13:00;102221.16;;;0.68;64.42
76260;BME280;65076;52.362;6.588;2023-02-26T05:15:28;102229.31;;;0.77;64.54
76260;BME280;65076;52.362;6.588;2023-02-26T05:17:56;102232.22;;;0.35;65.02
76260;BME280;65076;52.362;6.588;2023-02-26T05:20:25;102235.25;;;0.60;65.11
76260;BME280;65076;52.362;6.588;2023-02-26T05:22:53;102243.94;;;0.48;65.05
76260;BME280;65076;52.362;6.588;2023-02-26T05:25:21;102245.22;;;0.73;64.53
76260;BME280;65076;52.362;6.588;2023-02-26T05:27:49;102253.34;;;0.82;63.97
76260;BME280;65076;52.362;6.588;2023-02-26T05:30:19;102246.34;;;0.90;63.91
76260;BME280;65076;52.362;6.588;2023-02-26T05:32:47;102246.94;;;0.68;64.29
76260;BME280;65076;52.362;6.588;2023-02-26T05:35:17;102250.56;;;0.74;64.37
76260;BME280;65076;52.362;6.588;2023-02-26T05:37:45;102257.50;;;0.62;64.78
76260;BME280;65076;52.362;6.588;2023-02-26T05:40:14;102261.44;;;0.88;64.75
76260;BME280;65076;52.362;6.588;2023-02-26T05:42:42;102266.19;;;1.12;64.12
76260;BME280;65076;52.362;6.588;2023-02-26T05:45:10;102269.94;;;0.63;64.76
76260;BME280;65076;52.362;6.588;2023-02-26T05:47:40;102271.16;;;0.86;64.09
76260;BME280;65076;52.362;6.588;2023-02-26T05:50:09;102282.69;;;0.83;64.70
76260;BME280;65076;52.362;6.588;2023-02-26T05:52:38;102286.38;;;0.93;63.93
76260;BME280;65076;52.362;6.588;2023-02-26T05:55:07;102290.03;;;1.01;63.65
76260;BME280;65076;52.362;6.588;2023-02-26T05:57:36;102284.84;;;1.12;63.62
76260;BME280;65076;52.362;6.588;2023-02-26T06:00:06;102290.00;;;1.00;63.24
76260;BME280;65076;52.362;6.588;2023-02-26T06:02:35;102293.97;;;0.69;63.91
76260;BME280;65076;52.362;6.588;2023-02-26T06:05:06;102305.16;;;0.45;65.08
76260;BME280;65076;52.362;6.588;2023-02-26T06:07:35;102313.75;;;0.29;65.97
76260;BME280;65076;52.362;6.588;2023-02-26T06:10:03;102306.13;;;0.50;65.22
76260;BME280;65076;52.362;6.588;2023-02-26T06:12:32;102312.38;;;0.54;65.33
76260;BME280;65076;52.362;6.588;2023-02-26T06:15:00;102321.00;;;0.93;64.93
76260;BME280;65076;52.362;6.588;2023-02-26T06:17:27;102324.78;;;0.52;65.12
76260;BME280;65076;52.362;6.588;2023-02-26T06:19:55;102323.28;;;0.69;64.40
76260;BME280;65076;52.362;6.588;2023-02-26T06:22:25;102330.53;;;0.77;64.48
76260;BME280;65076;52.362;6.588;2023-02-26T06:24:53;102333.41;;;0.91;63.88
76260;BME280;65076;52.362;6.588;2023-02-26T06:27:21;102339.41;;;0.78;64.38
76260;BME280;65076;52.362;6.588;2023-02-26T06:29:50;102341.16;;;0.76;64.90
76260;BME280;65076;52.362;6.588;2023-02-26T06:32:18;102344.56;;;0.69;64.74
76260;BME280;65076;52.362;6.588;2023-02-26T06:34:46;102352.53;;;0.66;64.33
76260;BME280;65076;52.362;6.588;2023-02-26T06:37:14;102351.75;;;0.71;64.63
76260;BME280;65076;52.362;6.588;2023-02-26T06:39:43;102359.75;;;0.73;64.71
76260;BME280;65076;52.362;6.588;2023-02-26T06:42:11;102355.47;;;0.84;64.52
76260;BME280;65076;52.362;6.588;2023-02-26T06:44:39;102367.22;;;0.97;64.67
76260;BME280;65076;52.362;6.588;2023-02-26T06:47:07;102370.25;;;1.21;63.63
76260;BME280;65076;52.362;6.588;2023-02-26T06:49:35;102375.53;;;1.16;63.60
76260;BME280;65076;52.362;6.588;2023-02-26T06:52:03;102375.72;;;1.28;63.90
76260;BME280;65076;52.362;6.588;2023-02-26T06:54:32;102378.53;;;1.39;62.89
76260;BME280;65076;52.362;6.588;2023-02-26T06:57:01;102383.75;;;1.30;63.23
76260;BME280;65076;52.362;6.588;2023-02-26T06:59:29;102392.31;;;1.11;63.52
76260;BME280;65076;52.362;6.588;2023-02-26T07:01:57;102392.84;;;1.47;62.91
76260;BME280;65076;52.362;6.588;2023-02-26T07:04:25;102395.34;;;1.37;64.13
76260;BME280;65076;52.362;6.588;2023-02-26T07:06:53;102401.81;;;1.52;62.83
76260;BME280;65076;52.362;6.588;2023-02-26T07:09:21;102403.69;;;1.59;62.42
76260;BME280;65076;52.362;6.588;2023-02-26T07:11:49;102406.16;;;1.44;63.02
76260;BME280;65076;52.362;6.588;2023-02-26T07:14:18;102406.63;;;1.78;62.31
76260;BME280;65076;52.362;6.588;2023-02-26T07:16:46;102412.84;;;1.80;62.08
76260;BME280;65076;52.362;6.588;2023-02-26T07:19:14;102408.66;;;1.98;62.08
76260;BME280;65076;52.362;6.588;2023-02-26T07:21:43;102415.22;;;1.58;62.12
76260;BME280;65076;52.362;6.588;2023-02-26T07:24:11;102422.97;;;1.39;63.31
76260;BME280;65076;52.362;6.588;2023-02-26T07:26:38;102420.91;;;1.83;62.26
76260;BME280;65076;52.362;6.588;2023-02-26T07:29:07;102424.41;;;1.80;61.64
76260;BME280;65076;52.362;6.588;2023-02-26T07:31:36;102432.09;;;1.56;63.02
76260;BME280;65076;52.362;6.588;2023-02-26T07:34:06;102426.47;;;2.01;62.71
76260;BME280;65076;52.362;6.588;2023-02-26T07:36:35;102434.28;;;2.61;60.85
76260;BME280;65076;52.362;6.588;2023-02-26T07:39:03;102439.53;;;2.53;60.20
76260;BME280;65076;52.362;6.588;2023-02-26T07:41:31;102433.28;;;2.53;60.49
76260;BME280;65076;52.362;6.588;2023-02-26T07:43:59;102426.75;;;3.20;58.66
76260;BME280;65076;52.362;6.588;2023-02-26T07:46:27;102428.63;;;3.35;57.74
76260;BME280;65076;52.362;6.588;2023-02-26T07:48:57;102433.25;;;3.56;57.09
76260;BME280;65076;52.362;6.588;2023-02-26T07:51:25;102431.78;;;4.31;55.78
76260;BME280;65076;52.362;6.588;2023-02-26T07:53:53;102430.00;;;4.31;55.48
76260;BME280;65076;52.362;6.588;2023-02-26T07:56:21;102435.38;;;4.28;54.85
76260;BME280;65076;52.362;6.588;2023-02-26T07:58:53;102443.50;;;4.83;53.82
76260;BME280;65076;52.362;6.588;2023-02-26T08:01:21;102425.44;;;6.11;50.94
76260;BME280;65076;52.362;6.588;2023-02-26T08:03:49;102446.19;;;5.42;51.63
76260;BME280;65076;52.362;6.588;2023-02-26T08:06:19;102439.50;;;6.55;49.24
76260;BME280;65076;52.362;6.588;2023-02-26T08:08:47;102447.78;;;6.13;50.16
76260;BME280;65076;52.362;6.588;2023-02-26T08:11:15;102443.19;;;6.41;49.26
76260;BME280;65076;52.362;6.588;2023-02-26T08:13:53;102445.50;;;7.01;48.98
76260;BME280;65076;52.362;6.588;2023-02-26T08:16:21;102454.97;;;6.15;49.78
76260;BME280;65076;52.362;6.588;2023-02-26T08:18:51;102465.53;;;6.52;49.79
76260;BME280;65076;52.362;6.588;2023-02-26T08:21:21;102469.63;;;7.07;48.77
76260;BME280;65076;52.362;6.588;2023-02-26T08:23:50;102466.16;;;6.95;47.59
76260;BME280;65076;52.362;6.588;2023-02-26T08:26:20;102466.31;;;7.79;46.62
76260;BME280;65076;52.362;6.588;2023-02-26T08:28:49;102469.16;;;7.62;46.39
76260;BME280;65076;52.362;6.588;2023-02-26T08:31:17;102475.78;;;7.26;47.77
76260;BME280;65076;52.362;6.588;2023-02-26T08:33:45;102478.84;;;7.81;45.71
76260;BME280;65076;52.362;6.588;2023-02-26T08:36:13;102481.13;;;7.29;47.85
76260;BME280;65076;52.362;6.588;2023-02-26T08:38:43;102477.81;;;6.94;47.70
76260;BME280;65076;52.362;6.588;2023-02-26T08:41:11;102483.06;;;7.16;46.41
76260;BME280;65076;52.362;6.588;2023-02-26T08:43:39;102494.97;;;6.77;46.95
76260;BME280;65076;52.362;6.588;2023-02-26T08:46:07;102487.75;;;6.81;47.98
76260;BME280;65076;52.362;6.588;2023-02-26T08:48:44;102487.00;;;7.74;45.42
76260;BME280;65076;52.362;6.588;2023-02-26T08:51:12;102500.88;;;7.31;46.67
76260;BME280;65076;52.362;6.588;2023-02-26T08:53:41;102489.19;;;8.18;44.80
76260;BME280;65076;52.362;6.588;2023-02-26T08:56:12;102506.63;;;7.88;44.85
76260;BME280;65076;52.362;6.588;2023-02-26T08:58:40;102509.69;;;8.35;43.34
76260;BME280;65076;52.362;6.588;2023-02-26T09:01:08;102506.84;;;7.65;44.74
76260;BME280;65076;52.362;6.588;2023-02-26T09:03:36;102517.00;;;8.23;42.58
76260;BME280;65076;52.362;6.588;2023-02-26T09:06:06;102518.84;;;8.18;43.12
76260;BME280;65076;52.362;6.588;2023-02-26T09:08:34;102515.19;;;8.26;42.22
76260;BME280;65076;52.362;6.588;2023-02-26T09:11:06;102521.22;;;8.48;40.66
76260;BME280;65076;52.362;6.588;2023-02-26T09:13:34;102523.88;;;8.53;41.58
76260;BME280;65076;52.362;6.588;2023-02-26T09:16:02;102537.66;;;8.96;40.57
76260;BME280;65076;52.362;6.588;2023-02-26T09:18:30;102533.91;;;8.40;42.13
76260;BME280;65076;52.362;6.588;2023-02-26T09:20:59;102546.81;;;8.09;42.67
76260;BME280;65076;52.362;6.588;2023-02-26T09:23:26;102545.06;;;8.05;40.98
76260;BME280;65076;52.362;6.588;2023-02-26T09:25:56;102538.47;;;8.33;41.75
76260;BME280;65076;52.362;6.588;2023-02-26T09:28:26;102538.03;;;9.31;39.92
76260;BME280;65076;52.362;6.588;2023-02-26T09:30:54;102542.66;;;8.59;39.05
76260;BME280;65076;52.362;6.588;2023-02-26T09:33:36;102540.78;;;8.65;39.88
76260;BME280;65076;52.362;6.588;2023-02-26T09:36:07;102552.53;;;8.61;39.08
76260;BME280;65076;52.362;6.588;2023-02-26T09:38:35;102542.31;;;8.86;37.55
76260;BME280;65076;52.362;6.588;2023-02-26T09:41:05;102541.38;;;8.87;39.04
76260;BME280;65076;52.362;6.588;2023-02-26T09:44:06;102539.38;;;10.08;36.88
76260;BME280;65076;52.362;6.588;2023-02-26T09:46:45;102545.13;;;9.38;37.89
76260;BME280;65076;52.362;6.588;2023-02-26T09:49:55;102538.44;;;9.60;37.23
76260;BME280;65076;52.362;6.588;2023-02-26T09:52:34;102551.22;;;9.51;36.70
76260;BME280;65076;52.362;6.588;2023-02-26T09:55:11;102548.69;;;9.40;37.30
76260;BME280;65076;52.362;6.588;2023-02-26T09:57:43;102552.16;;;9.48;37.46
76260;BME280;65076;52.362;6.588;2023-02-26T10:00:22;102556.22;;;9.20;37.25
76260;BME280;65076;52.362;6.588;2023-02-26T10:03:00;102571.41;;;9.27;36.90
76260;BME280;65076;52.362;6.588;2023-02-26T10:05:45;102567.50;;;8.85;38.23
76260;BME280;65076;52.362;6.588;2023-02-26T10:08:35;102579.47;;;9.30;37.94
76260;BME280;65076;52.362;6.588;2023-02-26T10:11:24;102574.53;;;9.00;37.80
76260;BME280;65076;52.362;6.588;2023-02-26T10:14:02;102561.66;;;9.17;36.97
76260;BME280;65076;52.362;6.588;2023-02-26T10:16:40;102574.31;;;9.12;36.70
76260;BME280;65076;52.362;6.588;2023-02-26T10:19:17;102577.28;;;9.53;37.10
76260;BME280;65076;52.362;6.588;2023-02-26T10:21:49;102576.22;;;9.63;36.80
76260;BME280;65076;52.362;6.588;2023-02-26T10:24:23;102582.41;;;9.13;37.09
76260;BME280;65076;52.362;6.588;2023-02-26T10:26:56;102586.22;;;8.22;38.77
76260;BME280;65076;52.362;6.588;2023-02-26T10:29:35;102580.84;;;8.21;38.59
76260;BME280;65076;52.362;6.588;2023-02-26T10:32:22;102599.84;;;8.07;39.84
76260;BME280;65076;52.362;6.588;2023-02-26T10:34:57;102593.31;;;8.32;38.88
76260;BME280;65076;52.362;6.588;2023-02-26T10:37:37;102602.81;;;7.77;39.99
76260;BME280;65076;52.362;6.588;2023-02-26T10:40:21;102591.59;;;8.24;39.12
76260;BME280;65076;52.362;6.588;2023-02-26T10:42:57;102603.00;;;7.54;41.31
76260;BME280;65076;52.362;6.588;2023-02-26T10:45:44;102603.38;;;6.96;41.32
76260;BME280;65076;52.362;6.588;2023-02-26T10:48:30;102611.03;;;7.60;41.62
76260;BME280;65076;52.362;6.588;2023-02-26T10:51:12;102599.38;;;7.61;41.33
76260;BME280;65076;52.362;6.588;2023-02-26T10:53:45;102612.09;;;7.41;41.72
76260;BME280;65076;52.362;6.588;2023-02-26T10:56:21;102609.47;;;7.29;41.23
76260;BME280;65076;52.362;6.588;2023-02-26T10:58:54;102605.25;;;6.76;41.65
76260;BME280;65076;52.362;6.588;2023-02-26T11:01:24;102619.47;;;7.04;42.94
76260;BME280;65076;52.362;6.588;2023-02-26T11:03:58;102605.09;;;7.11;42.12
76260;BME280;65076;52.362;6.588;2023-02-26T11:06:30;102623.97;;;7.02;41.41
76260;BME280;65076;52.362;6.588;2023-02-26T11:09:06;102621.00;;;7.52;41.25
76260;BME280;65076;52.362;6.588;2023-02-26T11:11:47;102616.38;;;7.66;40.64
76260;BME280;65076;52.362;6.588;2023-02-26T11:14:19;102613.72;;;7.63;39.86
76260;BME280;65076;52.362;6.588;2023-02-26T11:16:55;102613.59;;;7.78;39.96
76260;BME280;65076;52.362;6.588;2023-02-26T11:19:30;102623.94;;;8.24;38.63
76260;BME280;65076;52.362;6.588;2023-02-26T11:22:13;102627.97;;;7.76;38.71
76260;BME280;65076;52.362;6.588;2023-02-26T11:24:44;102623.66;;;7.58;40.25
76260;BME280;65076;52.362;6.588;2023-02-26T11:27:17;102627.50;;;8.29;39.22
76260;BME280;65076;52.362;6.588;2023-02-26T11:29:52;102622.66;;;7.66;40.28
76260;BME280;65076;52.362;6.588;2023-02-26T11:32:29;102620.16;;;7.42;40.48
76260;BME280;65076;52.362;6.588;2023-02-26T11:35:01;102636.31;;;7.41;41.45
76260;BME280;65076;52.362;6.588;2023-02-26T11:37:33;102620.78;;;7.78;40.02
76260;BME280;65076;52.362;6.588;2023-02-26T11:40:12;102630.16;;;7.17;40.42
76260;BME280;65076;52.362;6.588;2023-02-26T11:42:47;102619.38;;;7.27;41.53
76260;BME280;65076;52.362;6.588;2023-02-26T11:45:20;102625.00;;;8.07;39.79
76260;BME280;65076;52.362;6.588;2023-02-26T11:47:55;102613.91;;;8.42;39.17
76260;BME280;65076;52.362;6.588;2023-02-26T11:50:29;102606.28;;;7.95;39.26
76260;BME280;65076;52.362;6.588;2023-02-26T11:53:05;102610.53;;;8.19;38.99
76260;BME280;65076;52.362;6.588;2023-02-26T11:55:37;102614.06;;;8.24;39.38
76260;BME280;65076;52.362;6.588;2023-02-26T11:58:17;102604.34;;;8.08;37.98
76260;BME280;65076;52.362;6.588;2023-02-26T12:00:49;102614.41;;;8.76;38.49
76260;BME280;65076;52.362;6.588;2023-02-26T12:03:20;102607.63;;;8.42;38.35
76260;BME280;65076;52.362;6.588;2023-02-26T12:05:57;102612.34;;;8.95;37.60
76260;BME280;65076;52.362;6.588;2023-02-26T12:08:29;102604.84;;;9.17;37.63
76260;BME280;65076;52.362;6.588;2023-02-26T12:11:17;102595.75;;;9.81;36.65
76260;BME280;65076;52.362;6.588;2023-02-26T12:14:15;102607.94;;;9.52;36.55
76260;BME280;65076;52.362;6.588;2023-02-26T12:17:12;102591.69;;;10.06;36.77
76260;BME280;65076;52.362;6.588;2023-02-26T12:19:55;102604.22;;;9.59;36.38
76260;BME280;65076;52.362;6.588;2023-02-26T12:22:48;102600.53;;;9.65;37.62
76260;BME280;65076;52.362;6.588;2023-02-26T12:25:42;102591.88;;;9.95;36.03
76260;BME280;65076;52.362;6.588;2023-02-26T12:29:03;102585.75;;;9.86;36.41
76260;BME280;65076;52.362;6.588;2023-02-26T12:31:58;102591.91;;;9.42;37.13
76260;BME280;65076;52.362;6.588;2023-02-26T12:35:05;102593.97;;;9.24;36.87
76260;BME280;65076;52.362;6.588;2023-02-26T12:37:52;102585.56;;;9.43;36.51
76260;BME280;65076;52.362;6.588;2023-02-26T12:40:50;102584.03;;;9.80;35.44
76260;BME280;65076;52.362;6.588;2023-02-26T12:43:45;102575.38;;;10.10;35.26
76260;BME280;65076;52.362;6.588;2023-02-26T12:46:24;102587.47;;;9.90;34.09
76260;BME280;65076;52.362;6.588;2023-02-26T12:49:24;102580.09;;;10.48;33.49
76260;BME280;65076;52.362;6.588;2023-02-26T12:52:21;102585.72;;;10.38;34.84
76260;BME280;65076;52.362;6.588;2023-02-26T12:55:17;102596.66;;;10.32;34.66
76260;BME280;65076;52.362;6.588;2023-02-26T12:58:18;102593.81;;;10.39;34.99
76260;BME280;65076;52.362;6.588;2023-02-26T13:01:07;102600.88;;;9.97;35.30
76260;BME280;65076;52.362;6.588;2023-02-26T13:04:07;102598.81;;;10.11;35.01
76260;BME280;65076;52.362;6.588;2023-02-26T13:07:00;102598.00;;;10.57;34.31
76260;BME280;65076;52.362;6.588;2023-02-26T13:09:50;102600.31;;;10.31;33.29
76260;BME280;65076;52.362;6.588;2023-02-26T13:12:41;102600.59;;;10.14;34.49
76260;BME280;65076;52.362;6.588;2023-02-26T13:15:33;102581.78;;;10.54;34.54
76260;BME280;65076;52.362;6.588;2023-02-26T13:18:17;102587.22;;;10.54;34.91
76260;BME280;65076;52.362;6.588;2023-02-26T13:20:56;102600.25;;;10.34;34.52
76260;BME280;65076;52.362;6.588;2023-02-26T13:23:31;102588.16;;;10.94;34.09
76260;BME280;65076;52.362;6.588;2023-02-26T13:26:10;102593.06;;;10.76;33.57
76260;BME280;65076;52.362;6.588;2023-02-26T13:28:43;102594.41;;;10.55;33.69
76260;BME280;65076;52.362;6.588;2023-02-26T13:31:28;102595.41;;;10.49;33.95
76260;BME280;65076;52.362;6.588;2023-02-26T13:34:05;102604.97;;;10.23;33.87
76260;BME280;65076;52.362;6.588;2023-02-26T13:36:41;102603.25;;;10.17;34.64
76260;BME280;65076;52.362;6.588;2023-02-26T13:39:22;102600.94;;;9.94;34.43